createdAt,value
2022-09-26T00:02:09.884Z,8.80
2022-09-26T00:04:37.925Z,9.00
2022-09-26T00:07:06.495Z,8.80
2022-09-26T00:09:34.855Z,9.30
2022-09-26T00:12:04.468Z,9.20
2022-09-26T00:14:32.825Z,9.40
2022-09-26T00:17:01.386Z,8.80
2022-09-26T00:19:29.671Z,9.00
2022-09-26T00:21:58.729Z,8.80
2022-09-26T00:24:37.850Z,8.40
2022-09-26T00:27:13.782Z,8.10
2022-09-26T00:29:56.936Z,7.70
2022-09-26T00:32:38.822Z,8.00
2022-09-26T00:35:28.255Z,7.20
2022-09-26T00:38:02.574Z,7.90
2022-09-26T00:40:44.716Z,7.80
2022-09-26T00:43:41.466Z,8.00
2022-09-26T00:46:46.149Z,7.60
2022-09-26T00:49:28.486Z,7.60
2022-09-26T00:52:16.968Z,8.20
2022-09-26T00:54:59.902Z,7.70
2022-09-26T00:57:35.672Z,8.30
2022-09-26T01:00:09.601Z,8.80
2022-09-26T01:02:39.364Z,7.90
2022-09-26T01:05:10.210Z,7.90
2022-09-26T01:07:38.539Z,8.60
2022-09-26T01:10:07.594Z,8.60
2022-09-26T01:12:38.190Z,8.20
2022-09-26T01:15:09.190Z,8.30
2022-09-26T01:17:40.075Z,8.40
2022-09-26T01:20:22.659Z,8.10
2022-09-26T01:23:28.209Z,9.20
2022-09-26T01:26:39.499Z,8.40
2022-09-26T01:29:35.762Z,8.60
2022-09-26T01:32:28.733Z,8.70
2022-09-26T01:35:00.472Z,9.20
2022-09-26T01:37:55.166Z,7.80
2022-09-26T01:40:42.395Z,8.30
2022-09-26T01:43:16.353Z,7.80
2022-09-26T01:46:12.589Z,9.10
2022-09-26T01:48:48.570Z,7.40
2022-09-26T01:51:33.339Z,7.70
2022-09-26T01:54:19.369Z,7.30
2022-09-26T01:56:58.480Z,8.00
2022-09-26T01:59:39.523Z,7.60
2022-09-26T02:02:24.566Z,8.10
2022-09-26T02:05:07.263Z,7.70
2022-09-26T02:08:06.152Z,7.80
2022-09-26T02:10:40.395Z,7.60
2022-09-26T02:13:23.244Z,7.70
2022-09-26T02:15:56.886Z,7.60
2022-09-26T02:18:40.925Z,8.10
2022-09-26T02:21:17.634Z,8.50
2022-09-26T02:23:47.773Z,8.40
2022-09-26T02:26:17.984Z,8.70
2022-09-26T02:28:46.633Z,8.70
2022-09-26T02:31:23.082Z,8.60
2022-09-26T02:33:52.850Z,8.10
2022-09-26T02:36:22.273Z,8.20
2022-09-26T02:38:50.392Z,8.10
2022-09-26T02:41:44.625Z,8.90
2022-09-26T02:45:17.373Z,8.20
2022-09-26T02:48:09.917Z,8.30
2022-09-26T02:51:01.187Z,8.20
2022-09-26T02:53:38.351Z,8.40
2022-09-26T02:56:23.621Z,8.10
2022-09-26T02:59:10.497Z,7.00
2022-09-26T03:02:16.153Z,7.40
2022-09-26T03:05:20.548Z,6.50
2022-09-26T03:07:56.657Z,7.30
2022-09-26T03:10:27.513Z,6.70
2022-09-26T03:13:01.432Z,8.00
2022-09-26T03:15:35.711Z,7.30
2022-09-26T03:18:12.220Z,6.70
2022-09-26T03:20:56.860Z,6.80
2022-09-26T03:23:29.746Z,7.10
2022-09-26T03:26:11.844Z,7.30
2022-09-26T03:29:00.245Z,7.80
2022-09-26T03:31:33.133Z,6.60
2022-09-26T03:34:04.890Z,7.30
2022-09-26T03:36:50.358Z,8.30
2022-09-26T03:39:25.557Z,7.20
2022-09-26T03:42:11.153Z,7.10
2022-09-26T03:44:43.173Z,7.40
2022-09-26T03:47:31.458Z,7.70
2022-09-26T03:51:44.709Z,9.30
2022-09-26T03:54:13.492Z,7.80
2022-09-26T03:56:41.965Z,7.90
2022-09-26T03:59:10.141Z,7.80
2022-09-26T04:01:40.329Z,8.80
2022-09-26T04:04:08.507Z,8.30
2022-09-26T04:06:38.079Z,8.60
2022-09-26T04:09:13.178Z,8.60
2022-09-26T04:11:46.746Z,8.40
2022-09-26T04:14:20.409Z,9.40
2022-09-26T04:16:55.533Z,9.40
2022-09-26T04:19:29.499Z,8.50
2022-09-26T04:22:04.627Z,8.40
2022-09-26T04:24:48.458Z,8.90
2022-09-26T04:27:18.843Z,8.60
2022-09-26T04:29:53.897Z,8.60
2022-09-26T04:32:51.802Z,8.40
2022-09-26T04:35:38.475Z,8.20
2022-09-26T04:38:10.574Z,8.50
2022-09-26T04:40:42.958Z,8.00
2022-09-26T04:43:43.696Z,8.30
2022-09-26T04:46:21.091Z,8.30
2022-09-26T04:48:52.306Z,9.10
2022-09-26T04:51:30.154Z,9.30
2022-09-26T04:53:58.925Z,8.10
2022-09-26T04:56:30.346Z,7.40
2022-09-26T04:59:00.536Z,8.00
2022-09-26T05:01:38.305Z,8.40
2022-09-26T05:04:18.639Z,8.40
2022-09-26T05:06:50.107Z,8.50
2022-09-26T05:09:26.404Z,8.80
2022-09-26T05:12:10.193Z,8.20
2022-09-26T05:14:42.138Z,8.20
2022-09-26T05:17:20.748Z,8.90
2022-09-26T05:19:51.999Z,9.20
2022-09-26T05:22:21.403Z,9.10
2022-09-26T05:25:10.957Z,8.70
2022-09-26T05:27:40.797Z,11.90
2022-09-26T05:30:09.664Z,18.60
2022-09-26T05:32:37.964Z,17.10
2022-09-26T05:35:07.379Z,16.10
2022-09-26T05:37:38.561Z,14.00
2022-09-26T05:40:28.057Z,13.50
2022-09-26T05:43:04.756Z,13.80
2022-09-26T05:45:49.346Z,12.00
2022-09-26T05:48:30.105Z,13.40
2022-09-26T05:51:21.199Z,13.70
2022-09-26T05:53:53.055Z,13.00
2022-09-26T05:56:24.219Z,10.70
2022-09-26T05:59:04.671Z,9.90
2022-09-26T06:01:36.526Z,11.20
2022-09-26T06:04:10.640Z,9.30
2022-09-26T06:06:48.858Z,9.10
2022-09-26T06:09:18.314Z,9.00
2022-09-26T06:12:05.392Z,8.00
2022-09-26T06:14:34.428Z,10.60
2022-09-26T06:17:02.613Z,10.20
2022-09-26T06:19:34.813Z,9.80
2022-09-26T06:22:09.760Z,9.70
2022-09-26T06:24:39.844Z,8.70
2022-09-26T06:27:28.523Z,8.60
2022-09-26T06:30:10.630Z,8.20
2022-09-26T06:32:39.473Z,7.90
2022-09-26T06:35:34.970Z,8.60
2022-09-26T06:38:11.581Z,9.30
2022-09-26T06:46:48.002Z,6.40
2022-09-26T06:49:20.745Z,6.10
2022-09-26T06:51:56.477Z,6.80
2022-09-26T06:54:24.824Z,6.60
2022-09-26T06:56:53.726Z,6.30
2022-09-26T06:59:23.433Z,8.80
2022-09-26T07:02:26.821Z,8.30
2022-09-26T07:05:05.609Z,7.80
2022-09-26T07:07:42.354Z,8.00
2022-09-26T07:10:20.410Z,8.60
2022-09-26T07:13:22.990Z,7.60
2022-09-26T07:15:51.451Z,6.40
2022-09-26T07:18:52.320Z,5.30
2022-09-26T07:21:33.666Z,4.60
2022-09-26T07:24:25.219Z,4.90
2022-09-26T07:26:53.327Z,4.50
2022-09-26T07:29:21.683Z,4.50
2022-09-26T07:31:50.723Z,4.90
2022-09-26T07:34:38.609Z,5.40
2022-09-26T07:37:07.866Z,4.60
2022-09-26T07:39:36.594Z,4.30
2022-09-26T07:42:05.305Z,4.50
2022-09-26T07:47:40.716Z,4.60
2022-09-26T07:50:25.672Z,4.70
2022-09-26T07:53:06.356Z,4.50
2022-09-26T07:56:07.457Z,4.90
2022-09-26T07:58:54.505Z,4.10
2022-09-26T08:01:43.434Z,4.40
2022-09-26T08:04:41.033Z,4.40
2022-09-26T08:07:12.348Z,4.30
2022-09-26T08:10:00.424Z,4.10
2022-09-26T08:15:33.987Z,4.40
2022-09-26T08:18:15.748Z,4.60
2022-09-26T08:20:48.437Z,4.90
2022-09-26T08:23:18.010Z,5.20
2022-09-26T08:25:55.328Z,4.70
2022-09-26T08:28:45.387Z,5.10
2022-09-26T08:31:13.682Z,5.40
2022-09-26T08:33:42.276Z,5.40
2022-09-26T08:36:18.794Z,5.30
2022-09-26T08:39:00.985Z,5.40
2022-09-26T08:42:19.638Z,5.80
2022-09-26T08:45:28.005Z,6.00
2022-09-26T08:48:39.673Z,6.10
2022-09-26T08:51:40.293Z,5.40
2022-09-26T08:54:39.672Z,9.50
2022-09-26T08:57:16.254Z,9.80
2022-09-26T08:59:47.218Z,8.30
2022-09-26T09:02:28.203Z,6.40
2022-09-26T09:05:11.807Z,4.80
2022-09-26T09:07:56.619Z,4.30
2022-09-26T09:10:49.536Z,5.10
2022-09-26T09:13:42.550Z,5.10
2022-09-26T09:17:05.662Z,5.80
2022-09-26T09:20:22.274Z,5.10
2022-09-26T09:23:40.535Z,5.20
2022-09-26T09:29:28.066Z,4.40
2022-09-26T09:32:26.456Z,4.40
2022-09-26T09:35:25.653Z,4.60
2022-09-26T09:38:24.654Z,3.10
2022-09-26T09:41:28.974Z,3.80
2022-09-26T09:44:05.745Z,3.70
2022-09-26T09:46:43.417Z,2.70
2022-09-26T09:49:23.879Z,3.30
2022-09-26T09:52:16.654Z,3.10
2022-09-26T09:55:13.274Z,3.60
2022-09-26T09:57:50.654Z,3.40
2022-09-26T10:00:26.900Z,3.30
2022-09-26T10:03:11.692Z,3.90
2022-09-26T10:05:52.724Z,3.00
2022-09-26T10:08:35.729Z,3.60
2022-09-26T10:11:43.170Z,3.90
2022-09-26T10:14:41.393Z,3.50
2022-09-26T10:17:10.062Z,3.80
2022-09-26T10:20:03.537Z,3.70
2022-09-26T10:22:43.043Z,3.70
2022-09-26T10:25:24.565Z,3.90
2022-09-26T10:27:59.353Z,3.70
2022-09-26T10:30:35.873Z,3.70
2022-09-26T10:33:36.945Z,3.50
2022-09-26T10:36:28.728Z,3.60
2022-09-26T10:39:22.246Z,3.50
2022-09-26T10:41:59.310Z,3.90
2022-09-26T10:44:32.158Z,3.60
2022-09-26T10:47:19.407Z,3.90
2022-09-26T10:53:14.231Z,3.60
2022-09-26T10:55:49.705Z,3.80
2022-09-26T10:58:27.833Z,3.60
2022-09-26T11:01:03.227Z,3.60
2022-09-26T11:03:43.421Z,3.80
2022-09-26T11:06:40.776Z,4.00
2022-09-26T11:09:38.603Z,3.50
2022-09-26T11:12:38.114Z,4.40
2022-09-26T11:15:14.274Z,4.50
2022-09-26T11:17:48.666Z,3.80
2022-09-26T11:20:43.332Z,5.40
2022-09-26T11:23:54.432Z,4.40
2022-09-26T11:26:37.374Z,4.50
2022-09-26T11:29:14.960Z,5.00
2022-09-26T11:32:05.457Z,5.00
2022-09-26T11:35:03.442Z,6.30
2022-09-26T11:37:45.727Z,5.60
2022-09-26T11:40:28.160Z,9.70
2022-09-26T11:43:33.745Z,7.20
2022-09-26T11:46:24.188Z,6.30
2022-09-26T11:49:24.876Z,6.80
2022-09-26T11:52:44.355Z,6.70
2022-09-26T11:55:40.347Z,6.50
2022-09-26T11:58:34.620Z,7.10
2022-09-26T12:01:23.514Z,7.00
2022-09-26T12:04:27.735Z,6.80
2022-09-26T12:07:11.196Z,7.10
2022-09-26T12:10:14.480Z,7.60
2022-09-26T12:13:17.613Z,6.90
2022-09-26T12:15:55.519Z,6.80
2022-09-26T12:19:05.514Z,7.20
2022-09-26T12:22:25.621Z,6.90
2022-09-26T12:25:39.068Z,6.00
2022-09-26T12:28:33.768Z,6.20
2022-09-26T12:31:26.489Z,7.00
2022-09-26T12:34:07.901Z,6.70
2022-09-26T12:36:55.479Z,7.70
2022-09-26T12:39:25.013Z,7.30
2022-09-26T12:42:11.315Z,6.50
2022-09-26T12:44:46.651Z,6.90
2022-09-26T12:47:21.794Z,7.00
2022-09-26T12:50:09.301Z,7.30
2022-09-26T12:53:02.799Z,7.00
2022-09-26T12:58:19.670Z,6.60
2022-09-26T13:01:12.042Z,6.30
2022-09-26T13:04:13.569Z,6.60
2022-09-26T13:07:17.917Z,6.50
2022-09-26T13:10:05.125Z,7.10
2022-09-26T13:12:42.778Z,6.60
2022-09-26T13:15:34.927Z,6.80
2022-09-26T13:18:46.305Z,7.10
2022-09-26T13:21:44.287Z,6.40
2022-09-26T13:24:48.951Z,6.50
2022-09-26T13:27:28.091Z,6.10
2022-09-26T13:30:35.823Z,5.70
2022-09-26T13:33:23.131Z,5.90
2022-09-26T13:36:04.140Z,6.20
2022-09-26T13:38:56.150Z,6.10
2022-09-26T13:41:44.941Z,5.80
2022-09-26T13:44:37.771Z,6.60
2022-09-26T13:48:00.089Z,5.50
2022-09-26T13:50:47.383Z,5.70
2022-09-26T13:53:39.922Z,5.80
2022-09-26T13:56:35.042Z,5.90
2022-09-26T13:59:12.241Z,6.30
2022-09-26T14:02:19.065Z,6.00
2022-09-26T14:04:50.302Z,5.80
2022-09-26T14:07:57.195Z,6.80
2022-09-26T14:10:25.328Z,7.20
2022-09-26T14:13:18.067Z,6.20
2022-09-26T14:15:49.392Z,6.40
2022-09-26T14:18:45.037Z,6.30
2022-09-26T14:21:13.184Z,6.40
2022-09-26T14:23:48.360Z,6.90
2022-09-26T14:29:36.702Z,6.20
2022-09-26T14:32:08.106Z,6.60
2022-09-26T14:34:43.642Z,6.80
2022-09-26T14:37:33.440Z,5.90
2022-09-26T14:40:17.484Z,6.30
2022-09-26T14:43:08.800Z,6.80
2022-09-26T14:46:02.698Z,7.20
2022-09-26T14:48:36.480Z,6.60
2022-09-26T14:51:18.637Z,6.70
2022-09-26T14:54:04.534Z,7.00
2022-09-26T14:56:47.543Z,7.10
2022-09-26T14:59:19.810Z,8.00
2022-09-26T15:01:48.686Z,7.60
2022-09-26T15:04:30.569Z,7.40
2022-09-26T15:07:05.432Z,9.90
2022-09-26T15:10:03.463Z,8.70
2022-09-26T15:13:13.988Z,8.00
2022-09-26T15:15:48.085Z,8.80
2022-09-26T15:18:28.569Z,8.70
2022-09-26T15:23:45.028Z,8.90
2022-09-26T15:26:16.591Z,9.10
2022-09-26T15:28:48.453Z,9.20
2022-09-26T15:31:26.146Z,9.00
2022-09-26T15:34:00.585Z,10.80
2022-09-26T15:36:40.269Z,8.70
2022-09-26T15:40:00.739Z,7.70
2022-09-26T15:42:48.981Z,7.60
2022-09-26T15:45:33.556Z,8.10
2022-09-26T15:48:05.667Z,7.80
2022-09-26T15:50:36.867Z,8.10
2022-09-26T15:53:14.417Z,8.60
2022-09-26T15:56:07.766Z,8.60
2022-09-26T15:58:48.542Z,10.80
2022-09-26T16:01:37.675Z,10.20
2022-09-26T16:04:45.402Z,9.80
2022-09-26T16:07:24.134Z,11.00
2022-09-26T16:10:33.431Z,9.60
2022-09-26T16:13:01.785Z,10.40
2022-09-26T16:15:31.327Z,11.00
2022-09-26T16:18:26.354Z,9.60
2022-09-26T16:21:16.353Z,10.40
2022-09-26T16:23:53.126Z,9.70
2022-09-26T16:26:22.535Z,9.30
2022-09-26T16:28:55.151Z,9.50
2022-09-26T16:31:52.463Z,9.90
2022-09-26T16:34:26.296Z,9.50
2022-09-26T16:36:54.765Z,9.20
2022-09-26T16:39:27.342Z,9.20
2022-09-26T16:42:07.030Z,8.70
2022-09-26T16:44:41.351Z,8.50
2022-09-26T16:47:42.868Z,9.30
2022-09-26T16:50:31.314Z,8.10
2022-09-26T16:53:06.958Z,7.80
2022-09-26T16:55:37.715Z,8.10
2022-09-26T16:58:06.607Z,8.40
2022-09-26T17:00:54.176Z,8.90
2022-09-26T17:03:32.583Z,8.00
2022-09-26T17:06:03.367Z,9.20
2022-09-26T17:08:31.649Z,10.50
2022-09-26T17:11:04.581Z,10.20
2022-09-26T17:13:35.847Z,10.00
2022-09-26T17:16:04.558Z,9.20
2022-09-26T17:18:35.140Z,9.90
2022-09-26T17:21:05.982Z,10.10
2022-09-26T17:23:41.798Z,9.40
2022-09-26T17:26:26.189Z,9.70
2022-09-26T17:29:00.491Z,9.60
2022-09-26T17:31:34.627Z,8.70
2022-09-26T17:34:07.662Z,8.20
2022-09-26T17:36:36.444Z,8.10
2022-09-26T17:42:32.251Z,8.40
2022-09-26T17:45:19.714Z,8.90
2022-09-26T17:47:48.836Z,8.50
2022-09-26T17:53:36.875Z,11.20
2022-09-26T17:56:07.298Z,11.10
2022-09-26T17:58:53.247Z,12.30
2022-09-26T18:04:38.654Z,14.40
2022-09-26T18:07:38.141Z,12.60
2022-09-26T18:10:31.165Z,12.00
2022-09-26T18:13:03.896Z,11.80
2022-09-26T18:15:36.148Z,20.20
2022-09-26T18:18:16.573Z,17.40
2022-09-26T18:26:13.906Z,15.20
2022-09-26T18:29:00.470Z,27.30
2022-09-26T18:31:40.885Z,33.10
2022-09-26T18:36:42.626Z,33.80
2022-09-26T18:39:19.906Z,31.60
2022-09-26T18:41:51.605Z,21.80
2022-09-26T18:44:49.213Z,23.10
2022-09-26T18:47:18.256Z,28.30
2022-09-26T18:49:53.031Z,29.00
2022-09-26T18:52:24.963Z,33.30
2022-09-26T18:55:14.033Z,17.00
2022-09-26T18:58:08.252Z,11.90
2022-09-26T19:01:05.102Z,11.60
2022-09-26T19:03:52.144Z,10.70
2022-09-26T19:07:44.159Z,9.90
2022-09-26T19:10:17.760Z,9.90
2022-09-26T19:12:50.806Z,9.80
2022-09-26T19:15:29.541Z,10.70
2022-09-26T19:18:03.282Z,9.10
2022-09-26T19:20:34.009Z,9.70
2022-09-26T19:23:05.807Z,9.70
2022-09-26T19:25:34.146Z,10.50
2022-09-26T19:28:06.154Z,9.70
2022-09-26T19:30:56.336Z,10.30
2022-09-26T19:33:24.999Z,11.20
2022-09-26T19:35:55.217Z,11.10
2022-09-26T19:38:34.452Z,10.70
2022-09-26T19:41:08.932Z,18.40
2022-09-26T19:43:38.922Z,14.10
2022-09-26T19:46:27.860Z,13.30
2022-09-26T19:49:07.772Z,12.10
2022-09-26T19:51:47.054Z,10.90
2022-09-26T19:54:23.236Z,12.90
2022-09-26T19:56:53.168Z,12.40
2022-09-26T19:59:27.848Z,10.70
2022-09-26T20:02:16.479Z,12.80
2022-09-26T20:04:45.549Z,11.70
2022-09-26T20:07:16.643Z,10.70
2022-09-26T20:09:54.030Z,12.00
2022-09-26T20:12:24.099Z,10.80
2022-09-26T20:14:53.541Z,12.30
2022-09-26T20:20:04.601Z,11.00
2022-09-26T20:22:42.536Z,9.90
2022-09-26T20:25:37.688Z,8.70
2022-09-26T20:28:15.633Z,9.90
2022-09-26T20:30:57.974Z,9.80
2022-09-26T20:33:27.784Z,9.20
2022-09-26T20:36:11.061Z,10.20
2022-09-26T20:38:48.974Z,9.70
2022-09-26T20:41:33.095Z,8.10
2022-09-26T20:44:33.917Z,8.40
2022-09-26T20:47:10.906Z,8.90
2022-09-26T20:50:03.682Z,8.40
2022-09-26T20:52:37.434Z,9.10
2022-09-26T20:55:23.142Z,9.10
2022-09-26T20:57:53.003Z,9.20
2022-09-26T21:00:27.725Z,8.50
2022-09-26T21:03:01.163Z,9.10
2022-09-26T21:05:32.395Z,8.70
2022-09-26T21:08:23.961Z,6.90
2022-09-26T21:10:56.366Z,6.80
2022-09-26T21:13:25.870Z,7.80
2022-09-26T21:16:04.287Z,8.00
2022-09-26T21:18:41.362Z,7.40
2022-09-26T21:21:33.702Z,6.40
2022-09-26T21:24:35.386Z,4.90
2022-09-26T21:27:04.964Z,4.80
2022-09-26T21:29:33.187Z,3.80
2022-09-26T21:32:17.992Z,3.40
2022-09-26T21:34:57.409Z,4.10
2022-09-26T21:37:26.800Z,4.00
2022-09-26T21:39:58.254Z,6.50
2022-09-26T21:42:30.297Z,9.90
2022-09-26T21:45:08.834Z,11.50
2022-09-26T21:48:00.249Z,13.50
2022-09-26T21:50:34.191Z,14.80
2022-09-26T21:53:10.372Z,17.30
2022-09-26T21:55:43.396Z,18.60
2022-09-26T21:58:17.675Z,19.00
2022-09-26T22:00:47.360Z,16.10
2022-09-26T22:03:16.228Z,17.50
2022-09-26T22:05:55.433Z,14.90
2022-09-26T22:08:25.073Z,16.30
2022-09-26T22:11:01.180Z,15.70
2022-09-26T22:13:35.751Z,16.40
2022-09-26T22:16:11.411Z,17.70
2022-09-26T22:18:43.934Z,17.50
2022-09-26T22:21:16.639Z,18.10
2022-09-26T22:23:45.257Z,17.90
2022-09-26T22:26:16.658Z,17.80
2022-09-26T22:28:45.527Z,16.90
2022-09-26T22:31:18.305Z,17.60
2022-09-26T22:34:05.162Z,15.00
2022-09-26T22:36:35.822Z,17.00
2022-09-26T22:39:08.925Z,18.00
2022-09-26T22:41:38.619Z,21.00
2022-09-26T22:44:08.302Z,19.20
2022-09-26T22:46:38.580Z,19.20
2022-09-26T22:49:21.364Z,18.50
2022-09-26T22:51:56.215Z,17.90
2022-09-26T22:54:36.902Z,16.90
2022-09-26T22:57:06.808Z,15.50
2022-09-26T22:59:35.820Z,16.40
2022-09-26T23:02:07.678Z,16.70
2022-09-26T23:04:48.788Z,15.90
2022-09-26T23:07:19.941Z,16.20
2022-09-26T23:12:23.292Z,14.90
2022-09-26T23:14:53.723Z,16.30
2022-09-26T23:17:26.776Z,18.00
2022-09-26T23:20:33.326Z,18.80
2022-09-26T23:25:50.781Z,18.70
2022-09-26T23:28:19.085Z,16.20
2022-09-26T23:30:48.312Z,16.20
2022-09-26T23:33:18.956Z,13.10
2022-09-26T23:36:03.881Z,10.50
2022-09-26T23:38:39.341Z,11.10
2022-09-26T23:41:10.998Z,9.60
2022-09-26T23:43:40.580Z,8.00
2022-09-26T23:46:11.904Z,6.60
2022-09-26T23:48:49.037Z,5.40
2022-09-26T23:51:40.904Z,4.60
2022-09-26T23:54:15.756Z,3.30
2022-09-26T23:56:48.684Z,2.50
2022-09-26T23:59:20.972Z,2.10
